createdAt,value
2019-04-22T00:00:00.516Z,13.79
2019-04-22T00:00:57.754Z,13.81
2019-04-22T00:02:05.175Z,13.77
2019-04-22T00:03:03.613Z,13.76
2019-04-22T00:04:03.574Z,13.58
2019-04-22T00:05:07.318Z,13.67
2019-04-22T00:06:17.990Z,13.59
2019-04-22T00:07:22.959Z,13.80
2019-04-22T00:08:24.213Z,13.73
2019-04-22T00:09:24.142Z,13.80
2019-04-22T00:10:26.117Z,13.76
2019-04-22T00:11:29.042Z,13.77
2019-04-22T00:12:32.917Z,13.76
2019-04-22T00:13:25.960Z,13.74
2019-04-22T00:14:19.424Z,13.63
2019-04-22T00:15:19.939Z,13.55
2019-04-22T00:16:27.870Z,13.62
2019-04-22T00:17:35.318Z,13.51
2019-04-22T00:18:40.014Z,13.49
2019-04-22T00:19:29.346Z,13.46
2019-04-22T00:20:22.946Z,13.43
2019-04-22T00:21:28.559Z,13.41
2019-04-22T00:23:24.509Z,13.32
2019-04-22T00:24:24.512Z,13.40
2019-04-22T00:25:30.697Z,13.49
2019-04-22T00:26:23.943Z,13.44
2019-04-22T00:27:28.136Z,13.37
2019-04-22T00:28:26.411Z,13.32
2019-04-22T00:29:42.373Z,13.33
2019-04-22T00:30:34.239Z,13.36
2019-04-22T00:31:20.925Z,13.30
2019-04-22T00:32:11.382Z,13.41
2019-04-22T00:33:20.567Z,13.46
2019-04-22T00:34:25.409Z,13.37
2019-04-22T00:35:18.298Z,13.30
2019-04-22T00:36:23.307Z,13.55
2019-04-22T00:37:25.154Z,13.59
2019-04-22T00:38:26.115Z,13.54
2019-04-22T00:39:34.267Z,13.55
2019-04-22T00:40:30.873Z,13.49
2019-04-22T00:41:21.451Z,13.37
2019-04-22T00:42:21.447Z,13.46
2019-04-22T00:43:25.883Z,13.40
2019-04-22T00:44:26.020Z,13.36
2019-04-22T00:45:26.954Z,13.25
2019-04-22T00:46:25.130Z,13.32
2019-04-22T00:47:27.907Z,13.24
2019-04-22T00:48:27.106Z,13.20
2019-04-22T00:50:23.856Z,13.20
2019-04-22T00:51:48.738Z,13.17
2019-04-22T00:52:21.812Z,13.12
2019-04-22T00:53:22.560Z,13.09
2019-04-22T00:54:21.429Z,13.07
2019-04-22T00:55:24.750Z,13.00
2019-04-22T00:56:21.967Z,13.04
2019-04-22T00:57:21.526Z,13.12
2019-04-22T00:58:24.640Z,13.06
2019-04-22T00:59:23.839Z,13.18
2019-04-22T01:00:28.944Z,13.00
2019-04-22T01:02:27.737Z,13.04
2019-04-22T01:03:27.783Z,13.17
2019-04-22T01:04:27.993Z,13.15
2019-04-22T01:05:30.212Z,13.14
2019-04-22T01:06:33.311Z,13.15
2019-04-22T01:07:23.912Z,13.15
2019-04-22T01:08:36.810Z,13.15
2019-04-22T01:09:23.502Z,12.93
2019-04-22T01:10:26.452Z,12.92
2019-04-22T01:11:31.125Z,13.06
2019-04-22T01:12:26.449Z,13.02
2019-04-22T01:13:27.593Z,13.00
2019-04-22T01:14:25.001Z,13.04
2019-04-22T01:15:23.637Z,13.07
2019-04-22T01:16:23.838Z,12.95
2019-04-22T01:17:24.430Z,12.97
2019-04-22T01:18:21.109Z,12.93
2019-04-22T01:19:23.730Z,13.03
2019-04-22T01:20:45.695Z,13.00
2019-04-22T01:21:28.886Z,12.93
2019-04-22T01:22:20.778Z,13.04
2019-04-22T01:23:19.747Z,12.89
2019-04-22T01:24:17.288Z,13.06
2019-04-22T01:25:19.083Z,13.02
2019-04-22T01:26:15.893Z,13.09
2019-04-22T01:27:11.508Z,13.06
2019-04-22T01:28:16.602Z,13.09
2019-04-22T01:29:10.950Z,13.03
2019-04-22T01:30:09.718Z,12.96
2019-04-22T01:31:07.267Z,13.04
2019-04-22T01:31:58.216Z,13.06
2019-04-22T01:33:05.695Z,12.99
2019-04-22T01:34:10.983Z,13.04
2019-04-22T01:35:13.054Z,12.95
2019-04-22T01:36:15.710Z,12.99
2019-04-22T01:37:14.139Z,12.89
2019-04-22T01:38:13.200Z,12.89
2019-04-22T01:39:21.872Z,12.95
2019-04-22T01:40:25.394Z,12.93
2019-04-22T01:41:25.075Z,12.93
2019-04-22T01:42:16.872Z,12.93
2019-04-22T01:43:25.173Z,12.88
2019-04-22T01:45:25.895Z,12.84
2019-04-22T01:46:25.904Z,12.89
2019-04-22T01:47:30.250Z,12.93
2019-04-22T01:48:29.501Z,12.95
2019-04-22T01:49:25.671Z,12.93
2019-04-22T01:50:27.759Z,12.87
2019-04-22T01:51:35.527Z,12.96
2019-04-22T01:52:20.353Z,13.00
2019-04-22T01:53:27.461Z,12.82
2019-04-22T01:54:29.910Z,12.84
2019-04-22T01:55:29.532Z,12.84
2019-04-22T01:56:31.698Z,12.79
2019-04-22T01:57:24.177Z,12.79
2019-04-22T01:58:21.479Z,12.77
2019-04-22T01:59:16.856Z,12.75
2019-04-22T02:00:16.339Z,12.77
2019-04-22T02:01:22.386Z,12.79
2019-04-22T02:02:25.166Z,12.74
2019-04-22T02:03:25.587Z,12.66
2019-04-22T02:04:26.954Z,12.64
2019-04-22T02:05:24.432Z,12.62
2019-04-22T02:06:22.132Z,12.54
2019-04-22T02:07:23.505Z,12.59
2019-04-22T02:08:31.276Z,12.59
2019-04-22T02:10:29.817Z,12.66
2019-04-22T02:11:29.274Z,12.57
2019-04-22T02:12:25.650Z,12.54
2019-04-22T02:13:23.724Z,12.64
2019-04-22T02:14:26.989Z,12.63
2019-04-22T02:15:23.438Z,12.67
2019-04-22T02:16:29.008Z,12.63
2019-04-22T02:17:28.641Z,12.67
2019-04-22T02:18:31.812Z,12.59
2019-04-22T02:19:36.753Z,12.69
2019-04-22T02:20:27.006Z,12.60
2019-04-22T02:21:22.391Z,12.60
2019-04-22T02:22:38.044Z,12.59
2019-04-22T02:23:45.800Z,12.64
2019-04-22T02:24:30.151Z,12.52
2019-04-22T02:25:24.576Z,12.52
2019-04-22T02:26:27.654Z,12.54
2019-04-22T02:27:29.246Z,12.45
2019-04-22T02:28:32.520Z,12.57
2019-04-22T02:29:24.303Z,12.54
2019-04-22T02:30:27.840Z,12.54
2019-04-22T02:32:38.831Z,12.51
2019-04-22T02:35:36.510Z,12.45
2019-04-22T02:36:30.412Z,12.44
2019-04-22T02:37:23.318Z,12.54
2019-04-22T02:38:44.563Z,12.48
2019-04-22T02:39:24.585Z,12.51
2019-04-22T02:40:34.650Z,12.57
2019-04-22T02:42:27.806Z,12.49
2019-04-22T02:43:56.955Z,12.48
2019-04-22T02:44:31.346Z,12.42
2019-04-22T02:45:46.914Z,12.42
2019-04-22T02:47:27.541Z,12.44
2019-04-22T02:48:48.235Z,12.46
2019-04-22T02:50:43.442Z,12.30
2019-04-22T02:52:34.807Z,12.30
2019-04-22T02:55:23.636Z,12.30
2019-04-22T02:57:35.545Z,12.24
2019-04-22T02:58:37.410Z,12.29
2019-04-22T02:59:34.496Z,12.20
2019-04-22T03:00:29.359Z,12.29
2019-04-22T03:01:33.128Z,12.38
2019-04-22T03:02:46.092Z,12.44
2019-04-22T03:03:43.302Z,12.42
2019-04-22T03:07:23.473Z,12.38
2019-04-22T03:08:30.061Z,12.38
2019-04-22T03:09:35.718Z,12.34
2019-04-22T03:10:43.872Z,12.24
2019-04-22T03:11:34.309Z,12.20
2019-04-22T03:12:21.637Z,12.37
2019-04-22T03:14:46.132Z,12.31
2019-04-22T03:15:20.043Z,12.34
2019-04-22T03:16:36.647Z,12.42
2019-04-22T03:17:29.272Z,12.31
2019-04-22T03:20:24.796Z,12.39
2019-04-22T03:21:31.760Z,12.39
2019-04-22T03:23:35.672Z,12.42
2019-04-22T03:24:25.636Z,12.27
2019-04-22T03:25:51.794Z,12.30
2019-04-22T03:26:39.040Z,12.19
2019-04-22T03:27:35.297Z,12.27
2019-04-22T03:28:27.326Z,12.37
2019-04-22T03:29:39.118Z,12.33
2019-04-22T03:30:48.136Z,12.34
2019-04-22T03:31:58.697Z,12.30
2019-04-22T03:32:52.824Z,12.26
2019-04-22T03:34:09.714Z,12.16
2019-04-22T03:38:41.607Z,11.97
2019-04-22T03:41:41.395Z,12.01
2019-04-22T03:42:51.901Z,11.96
2019-04-22T03:43:35.899Z,11.85
2019-04-22T03:46:30.470Z,11.94
2019-04-22T03:47:45.405Z,11.94
2019-04-22T03:48:26.035Z,11.90
2019-04-22T03:49:39.291Z,11.94
2019-04-22T03:50:25.892Z,11.80
2019-04-22T03:51:38.265Z,11.85
2019-04-22T03:52:20.765Z,11.77
2019-04-22T03:54:39.533Z,11.83
2019-04-22T03:56:56.465Z,11.83
2019-04-22T03:57:40.508Z,11.75
2019-04-22T03:58:21.431Z,11.77
2019-04-22T03:59:36.302Z,11.74
2019-04-22T04:00:41.691Z,11.72
2019-04-22T04:01:37.256Z,11.70
2019-04-22T04:02:41.398Z,11.70
2019-04-22T04:03:29.170Z,11.61
2019-04-22T04:05:41.144Z,11.59
2019-04-22T04:06:36.599Z,11.54
2019-04-22T04:07:48.096Z,11.50
2019-04-22T04:09:32.710Z,11.47
2019-04-22T04:10:37.486Z,11.49
2019-04-22T04:11:32.202Z,11.47
2019-04-22T04:12:28.458Z,11.47
2019-04-22T04:13:30.399Z,11.39
2019-04-22T04:16:30.670Z,11.52
2019-04-22T04:17:33.243Z,11.44
2019-04-22T04:18:30.692Z,11.44
2019-04-22T04:19:34.970Z,11.46
2019-04-22T04:20:34.369Z,11.52
2019-04-22T04:26:35.156Z,11.56
2019-04-22T04:27:43.199Z,11.44
2019-04-22T04:28:46.429Z,11.47
2019-04-22T04:29:45.718Z,11.59
2019-04-22T04:33:28.966Z,11.44
2019-04-22T04:34:47.877Z,11.53
2019-04-22T04:36:35.533Z,11.47
2019-04-22T04:37:42.556Z,11.44
2019-04-22T04:38:32.383Z,11.49
2019-04-22T04:41:34.133Z,11.72
2019-04-22T04:43:30.016Z,11.77
2019-04-22T04:44:55.143Z,11.70
2019-04-22T04:45:40.781Z,11.86
2019-04-22T04:46:37.788Z,11.77
2019-04-22T04:47:41.143Z,11.86
2019-04-22T04:48:32.338Z,11.94
2019-04-22T04:50:27.210Z,11.82
2019-04-22T04:51:33.042Z,11.83
2019-04-22T04:52:40.756Z,11.96
2019-04-22T04:54:30.484Z,12.05
2019-04-22T04:55:35.003Z,12.16
2019-04-22T04:56:36.492Z,12.13
2019-04-22T04:57:33.587Z,12.21
2019-04-22T04:58:43.556Z,12.21
2019-04-22T04:59:33.242Z,12.19
2019-04-22T05:01:42.400Z,12.29
2019-04-22T05:02:41.000Z,12.26
2019-04-22T05:03:46.037Z,12.48
2019-04-22T05:05:28.780Z,13.24
2019-04-22T05:06:33.099Z,13.63
2019-04-22T05:08:40.776Z,14.24
2019-04-22T05:09:47.615Z,14.20
2019-04-22T05:11:35.008Z,14.31
2019-04-22T05:12:45.888Z,14.57
2019-04-22T05:13:37.025Z,14.56
2019-04-22T05:14:24.859Z,14.72
2019-04-22T05:15:27.323Z,14.80
2019-04-22T05:17:25.476Z,14.61
2019-04-22T05:18:34.433Z,14.68
2019-04-22T05:19:25.685Z,15.02
2019-04-22T05:22:21.458Z,14.91
2019-04-22T05:23:24.991Z,14.93
2019-04-22T05:24:36.705Z,15.19
2019-04-22T05:25:41.030Z,15.12
2019-04-22T05:26:29.330Z,15.45
2019-04-22T05:27:32.951Z,15.20
2019-04-22T05:28:24.409Z,15.05
2019-04-22T05:29:26.731Z,15.28
2019-04-22T05:31:27.615Z,15.08
2019-04-22T05:32:27.026Z,15.30
2019-04-22T05:33:23.668Z,15.41
2019-04-22T05:34:25.759Z,15.52
2019-04-22T05:36:25.964Z,15.48
2019-04-22T05:37:23.617Z,16.06
2019-04-22T05:38:31.401Z,15.76
2019-04-22T05:39:17.321Z,15.85
2019-04-22T05:40:24.561Z,15.79
2019-04-22T05:41:27.234Z,15.78
2019-04-22T05:42:17.872Z,16.04
2019-04-22T05:43:21.271Z,15.94
2019-04-22T05:45:21.546Z,16.20
2019-04-22T05:46:20.755Z,16.44
2019-04-22T05:47:20.872Z,16.35
2019-04-22T05:48:18.889Z,16.35
2019-04-22T05:49:18.234Z,16.63
2019-04-22T05:50:18.975Z,16.41
2019-04-22T05:51:17.805Z,16.14
2019-04-22T05:52:22.327Z,16.38
2019-04-22T05:53:20.054Z,16.37
2019-04-22T05:54:22.365Z,16.34
2019-04-22T05:55:22.672Z,16.44
2019-04-22T05:56:28.106Z,16.14
2019-04-22T05:57:18.096Z,16.40
2019-04-22T05:58:22.545Z,16.67
2019-04-22T05:59:37.947Z,16.30
2019-04-22T06:00:25.857Z,16.37
2019-04-22T06:02:30.929Z,16.93
2019-04-22T06:03:16.727Z,17.04
2019-04-22T06:04:41.406Z,17.14
2019-04-22T06:05:17.203Z,17.38
2019-04-22T06:06:18.254Z,17.43
2019-04-22T06:07:25.322Z,17.36
2019-04-22T06:08:16.678Z,17.18
2019-04-22T06:09:24.820Z,17.23
2019-04-22T06:10:39.460Z,17.46
2019-04-22T06:12:19.095Z,17.43
2019-04-22T06:13:17.979Z,17.32
2019-04-22T06:14:15.288Z,17.35
2019-04-22T06:15:18.318Z,18.06
2019-04-22T06:16:20.525Z,17.51
2019-04-22T06:17:24.770Z,17.33
2019-04-22T06:18:22.759Z,17.38
2019-04-22T06:19:18.584Z,17.41
2019-04-22T06:20:09.179Z,17.22
2019-04-22T06:21:18.692Z,17.54
2019-04-22T06:22:30.359Z,17.55
2019-04-22T06:23:26.968Z,17.41
2019-04-22T06:24:23.284Z,17.18
2019-04-22T06:25:28.029Z,17.69
2019-04-22T06:26:30.937Z,17.59
2019-04-22T06:27:21.998Z,17.81
2019-04-22T06:28:30.227Z,17.84
2019-04-22T06:29:19.425Z,17.79
2019-04-22T06:30:23.320Z,17.78
2019-04-22T06:31:28.325Z,18.13
2019-04-22T06:33:20.780Z,18.25
2019-04-22T06:34:27.586Z,18.07
2019-04-22T06:35:36.400Z,18.33
2019-04-22T06:36:26.321Z,18.76
2019-04-22T06:37:26.130Z,18.46
2019-04-22T06:38:30.438Z,18.24
2019-04-22T06:40:24.831Z,18.42
2019-04-22T06:41:21.119Z,18.90
2019-04-22T06:42:26.608Z,18.47
2019-04-22T06:43:36.851Z,18.40
2019-04-22T06:46:20.853Z,19.15
2019-04-22T06:47:28.971Z,19.63
2019-04-22T06:49:27.974Z,19.35
2019-04-22T06:50:24.213Z,19.02
2019-04-22T06:51:19.803Z,19.05
2019-04-22T06:52:17.916Z,19.32
2019-04-22T06:53:17.573Z,19.17
2019-04-22T06:54:22.055Z,19.69
2019-04-22T06:55:24.889Z,19.68
2019-04-22T06:56:16.142Z,19.40
2019-04-22T06:57:20.762Z,19.23
2019-04-22T06:58:15.374Z,19.58
2019-04-22T06:59:22.993Z,19.70
2019-04-22T07:00:18.518Z,19.73
2019-04-22T07:01:35.730Z,19.70
2019-04-22T07:02:25.622Z,19.42
2019-04-22T07:04:17.244Z,19.57
2019-04-22T07:05:23.363Z,19.35
2019-04-22T07:06:37.282Z,20.02
2019-04-22T07:07:20.158Z,19.93
2019-04-22T07:08:46.944Z,20.25
2019-04-22T07:10:28.631Z,20.50
2019-04-22T07:11:18.512Z,20.12
2019-04-22T07:12:30.523Z,19.91
2019-04-22T07:13:23.301Z,19.73
2019-04-22T07:14:16.363Z,19.65
2019-04-22T07:15:36.902Z,20.05
2019-04-22T07:17:26.253Z,20.96
2019-04-22T07:18:24.995Z,20.87
2019-04-22T07:19:20.590Z,21.44
2019-04-22T07:20:24.136Z,20.59
2019-04-22T07:21:19.710Z,20.38
2019-04-22T07:23:33.392Z,20.58
2019-04-22T07:24:35.595Z,20.84
2019-04-22T07:25:15.690Z,21.09
2019-04-22T07:26:16.228Z,20.93
2019-04-22T07:28:15.728Z,20.51
2019-04-22T07:30:25.323Z,20.62
2019-04-22T07:31:16.000Z,20.50
2019-04-22T07:32:29.764Z,20.66
2019-04-22T07:33:20.550Z,20.80
2019-04-22T07:34:34.622Z,20.84
2019-04-22T07:35:22.757Z,21.54
2019-04-22T07:37:29.151Z,21.39
2019-04-22T07:38:25.682Z,21.29
2019-04-22T07:39:15.681Z,21.72
2019-04-22T07:40:17.235Z,22.12
2019-04-22T07:41:23.073Z,22.04
2019-04-22T07:42:19.006Z,21.50
2019-04-22T07:45:22.562Z,21.44
2019-04-22T07:46:19.844Z,21.30
2019-04-22T07:47:25.743Z,21.97
2019-04-22T07:48:26.431Z,21.81
2019-04-22T07:49:22.037Z,21.42
2019-04-22T07:50:30.264Z,21.95
2019-04-22T07:51:23.207Z,21.91
2019-04-22T07:52:20.363Z,22.04
2019-04-22T07:53:19.822Z,22.41
2019-04-22T07:54:19.684Z,22.19
2019-04-22T07:55:11.907Z,21.94
2019-04-22T07:56:18.435Z,22.09
2019-04-22T07:57:27.801Z,22.50
2019-04-22T07:58:18.613Z,22.47
2019-04-22T07:59:22.266Z,22.37
2019-04-22T08:01:20.301Z,22.97
2019-04-22T08:02:21.057Z,22.93
2019-04-22T08:03:28.937Z,22.84
2019-04-22T08:04:22.911Z,22.80
2019-04-22T08:05:22.807Z,22.86
2019-04-22T08:06:26.510Z,22.62
2019-04-22T08:07:18.106Z,22.32
2019-04-22T08:09:19.931Z,22.68
2019-04-22T08:10:29.980Z,22.62
2019-04-22T08:11:43.744Z,22.52
2019-04-22T08:12:20.309Z,22.65
2019-04-22T08:13:21.212Z,23.76
2019-04-22T08:14:22.482Z,23.31
2019-04-22T08:15:21.267Z,23.07
2019-04-22T08:16:19.938Z,23.27
2019-04-22T08:17:50.438Z,23.57
2019-04-22T08:18:17.209Z,24.39
2019-04-22T08:19:22.766Z,24.27
2019-04-22T08:20:25.147Z,23.58
2019-04-22T08:21:19.742Z,23.90
2019-04-22T08:22:17.107Z,24.44
2019-04-22T08:23:19.181Z,23.82
2019-04-22T08:24:35.975Z,24.16
2019-04-22T08:25:18.088Z,23.46
2019-04-22T08:26:20.584Z,23.20
2019-04-22T08:27:15.299Z,23.75
2019-04-22T08:28:17.824Z,23.60
2019-04-22T08:29:20.322Z,24.07
2019-04-22T08:30:20.713Z,23.62
2019-04-22T08:31:25.091Z,23.79
2019-04-22T08:32:21.934Z,24.02
2019-04-22T08:33:21.574Z,23.77
2019-04-22T08:34:20.817Z,24.04
2019-04-22T08:35:20.237Z,24.56
2019-04-22T08:36:23.316Z,23.97
2019-04-22T08:37:41.871Z,24.08
2019-04-22T08:38:14.671Z,24.04
2019-04-22T08:39:21.775Z,24.56
2019-04-22T08:40:21.026Z,24.77
2019-04-22T08:41:28.351Z,24.52
2019-04-22T08:42:28.002Z,24.13
2019-04-22T08:43:30.081Z,24.24
2019-04-22T08:44:26.092Z,24.05
2019-04-22T08:45:14.950Z,23.80
2019-04-22T08:46:24.179Z,24.49
2019-04-22T08:48:15.023Z,24.83
2019-04-22T08:49:10.558Z,24.92
2019-04-22T08:50:36.423Z,25.19
2019-04-22T08:51:22.177Z,24.14
2019-04-22T08:52:26.096Z,24.63
2019-04-22T08:53:28.507Z,24.90
2019-04-22T08:54:24.512Z,23.79
2019-04-22T08:55:20.958Z,24.17
2019-04-22T08:57:22.944Z,25.06
2019-04-22T08:59:28.233Z,25.16
2019-04-22T09:00:19.932Z,25.05
2019-04-22T09:01:21.213Z,25.38
2019-04-22T09:02:19.819Z,25.38
2019-04-22T09:03:10.766Z,25.22
2019-04-22T09:04:11.973Z,24.98
2019-04-22T09:05:22.543Z,24.85
2019-04-22T09:06:29.591Z,24.35
2019-04-22T09:07:31.486Z,24.71
2019-04-22T09:08:19.090Z,25.00
2019-04-22T09:09:21.219Z,25.05
2019-04-22T09:10:18.099Z,25.74
2019-04-22T09:11:20.070Z,25.54
2019-04-22T09:12:23.786Z,24.97
2019-04-22T09:13:13.935Z,25.07
2019-04-22T09:14:22.590Z,24.92
2019-04-22T09:15:20.605Z,25.15
2019-04-22T09:16:19.413Z,25.62
2019-04-22T09:17:20.105Z,25.74
2019-04-22T09:19:19.688Z,25.44
2019-04-22T09:20:20.531Z,25.39
2019-04-22T09:21:32.675Z,25.52
2019-04-22T09:22:17.305Z,25.62
2019-04-22T09:23:24.695Z,25.09
2019-04-22T09:24:16.512Z,24.69
2019-04-22T09:25:17.021Z,25.02
2019-04-22T09:26:27.386Z,25.80
2019-04-22T09:27:31.786Z,26.18
2019-04-22T09:28:15.122Z,25.44
2019-04-22T09:29:20.754Z,25.47
2019-04-22T09:30:18.747Z,25.97
2019-04-22T09:31:19.656Z,25.59
2019-04-22T09:32:19.001Z,24.98
2019-04-22T09:33:25.750Z,25.17
2019-04-22T09:34:20.993Z,25.15
2019-04-22T09:35:21.368Z,25.25
2019-04-22T09:36:25.733Z,25.59
2019-04-22T09:37:27.181Z,25.38
2019-04-22T09:39:21.462Z,24.94
2019-04-22T09:40:22.349Z,25.02
2019-04-22T09:41:24.935Z,25.38
2019-04-22T09:42:17.237Z,25.38
2019-04-22T09:43:17.391Z,24.97
2019-04-22T09:44:16.466Z,25.44
2019-04-22T09:45:15.259Z,25.82
2019-04-22T09:46:19.830Z,25.13
2019-04-22T09:47:19.124Z,25.39
2019-04-22T09:48:23.493Z,25.27
2019-04-22T09:49:23.417Z,25.38
2019-04-22T09:50:16.424Z,24.94
2019-04-22T09:51:20.206Z,25.12
2019-04-22T09:52:16.215Z,24.82
2019-04-22T09:53:25.441Z,24.67
2019-04-22T09:54:21.676Z,24.76
2019-04-22T09:55:18.258Z,25.17
2019-04-22T09:56:18.105Z,25.77
2019-04-22T09:57:15.764Z,25.69
2019-04-22T09:58:20.885Z,25.05
2019-04-22T09:59:34.883Z,25.59
2019-04-22T10:00:13.938Z,25.57
2019-04-22T10:01:22.660Z,25.65
2019-04-22T10:03:36.505Z,25.02
2019-04-22T10:04:14.183Z,24.90
2019-04-22T10:05:20.894Z,25.17
2019-04-22T10:06:29.355Z,25.79
2019-04-22T10:07:23.911Z,25.69
2019-04-22T10:08:24.582Z,25.61
2019-04-22T10:09:34.338Z,26.12
2019-04-22T10:10:20.537Z,26.05
2019-04-22T10:11:23.979Z,25.64
2019-04-22T10:12:19.259Z,25.62
2019-04-22T10:13:18.735Z,26.15
2019-04-22T10:14:18.756Z,26.67
2019-04-22T10:15:13.864Z,27.09
2019-04-22T10:16:17.347Z,27.09
2019-04-22T10:17:15.461Z,26.52
2019-04-22T10:18:16.250Z,26.29
2019-04-22T10:19:16.850Z,25.83
2019-04-22T10:20:16.759Z,26.08
2019-04-22T10:21:28.100Z,26.28
2019-04-22T10:22:19.703Z,26.52
2019-04-22T10:23:19.024Z,25.68
2019-04-22T10:24:16.749Z,25.07
2019-04-22T10:25:16.880Z,25.24
2019-04-22T10:26:22.314Z,25.86
2019-04-22T10:27:14.349Z,26.50
2019-04-22T10:29:16.991Z,26.31
2019-04-22T10:30:27.324Z,26.20
2019-04-22T10:31:21.884Z,26.42
2019-04-22T10:32:14.742Z,26.05
2019-04-22T10:33:13.227Z,25.39
2019-04-22T10:34:05.380Z,25.10
2019-04-22T10:35:01.938Z,24.83
2019-04-22T10:35:51.884Z,24.47
2019-04-22T10:36:56.888Z,25.28
2019-04-22T10:37:52.168Z,24.71
2019-04-22T10:38:50.763Z,25.27
2019-04-22T10:39:56.239Z,25.54
2019-04-22T10:40:52.558Z,25.50
2019-04-22T10:41:50.736Z,25.27
2019-04-22T10:42:51.469Z,25.16
2019-04-22T10:43:51.036Z,25.27
2019-04-22T10:44:51.847Z,25.57
2019-04-22T10:45:52.193Z,25.07
2019-04-22T10:46:51.965Z,25.22
2019-04-22T10:47:52.141Z,25.19
2019-04-22T10:48:50.658Z,25.00
2019-04-22T10:49:52.098Z,25.20
2019-04-22T10:50:50.709Z,25.52
2019-04-22T10:51:50.821Z,25.39
2019-04-22T10:52:50.664Z,24.73
2019-04-22T10:53:51.272Z,24.69
2019-04-22T10:54:51.665Z,25.25
2019-04-22T10:55:51.673Z,25.19
2019-04-22T10:56:50.845Z,24.95
2019-04-22T10:57:50.761Z,24.97
2019-04-22T10:58:50.859Z,24.87
2019-04-22T10:59:50.556Z,24.76
2019-04-22T11:00:52.098Z,25.06
2019-04-22T11:01:50.671Z,25.67
2019-04-22T11:02:50.563Z,25.89
2019-04-22T11:03:51.127Z,25.32
2019-04-22T11:04:50.507Z,25.94
2019-04-22T11:05:50.643Z,26.21
2019-04-22T11:06:55.690Z,26.12
2019-04-22T11:07:57.538Z,26.57
2019-04-22T11:08:56.206Z,25.77
2019-04-22T11:09:58.977Z,25.72
2019-04-22T11:11:09.398Z,25.86
2019-04-22T11:11:58.446Z,26.28
2019-04-22T11:12:51.421Z,26.36
2019-04-22T11:13:51.932Z,25.87
2019-04-22T11:14:51.633Z,25.79
2019-04-22T11:15:50.985Z,25.43
2019-04-22T11:16:50.387Z,25.47
2019-04-22T11:17:51.404Z,25.38
2019-04-22T11:18:51.671Z,25.52
2019-04-22T11:19:50.358Z,25.79
2019-04-22T11:20:51.545Z,25.59
2019-04-22T11:21:59.896Z,26.35
2019-04-22T11:22:52.976Z,26.40
2019-04-22T11:23:50.530Z,26.08
2019-04-22T11:24:50.827Z,25.91
2019-04-22T11:25:50.299Z,25.74
2019-04-22T11:26:50.300Z,25.97
2019-04-22T11:27:51.374Z,25.86
2019-04-22T11:28:51.668Z,26.37
2019-04-22T11:29:50.266Z,26.25
2019-04-22T11:30:50.307Z,25.91
2019-04-22T11:31:50.538Z,25.91
2019-04-22T11:32:50.702Z,25.19
2019-04-22T11:33:50.364Z,25.46
2019-04-22T11:34:51.200Z,25.52
2019-04-22T11:35:50.270Z,25.97
2019-04-22T11:36:50.593Z,25.99
2019-04-22T11:37:50.719Z,25.50
2019-04-22T11:38:56.469Z,25.79
2019-04-22T11:40:04.366Z,25.71
2019-04-22T11:40:53.974Z,25.65
2019-04-22T11:41:50.151Z,25.84
2019-04-22T11:42:50.321Z,26.49
2019-04-22T11:43:51.350Z,26.54
2019-04-22T11:44:50.971Z,26.49
2019-04-22T11:45:51.177Z,26.25
2019-04-22T11:46:51.539Z,25.22
2019-04-22T11:47:51.087Z,25.32
2019-04-22T11:48:50.114Z,25.69
2019-04-22T11:49:50.064Z,25.98
2019-04-22T11:50:51.552Z,25.65
2019-04-22T11:51:50.049Z,25.65
2019-04-22T11:52:50.991Z,25.93
2019-04-22T11:53:50.028Z,25.39
2019-04-22T11:54:50.694Z,25.74
2019-04-22T11:55:50.833Z,26.52
2019-04-22T11:56:50.000Z,26.62
2019-04-22T11:57:49.984Z,27.13
2019-04-22T11:58:50.856Z,25.87
2019-04-22T11:59:51.052Z,25.68
2019-04-22T12:00:51.676Z,25.44
2019-04-22T12:01:50.995Z,25.94
2019-04-22T12:02:51.158Z,25.79
2019-04-22T12:03:49.935Z,25.65
2019-04-22T12:04:49.948Z,25.82
2019-04-22T12:05:50.019Z,26.08
2019-04-22T12:06:49.904Z,25.97
2019-04-22T12:07:50.961Z,25.79
2019-04-22T12:08:50.099Z,25.93
2019-04-22T12:09:51.299Z,26.29
2019-04-22T12:10:54.605Z,25.86
2019-04-22T12:11:51.719Z,26.21
2019-04-22T12:12:51.498Z,26.37
2019-04-22T12:13:49.836Z,25.64
2019-04-22T12:14:50.123Z,26.29
2019-04-22T12:15:51.052Z,26.37
2019-04-22T12:16:49.855Z,26.36
2019-04-22T12:17:51.009Z,26.62
2019-04-22T12:18:51.100Z,26.50
2019-04-22T12:19:50.398Z,26.92
2019-04-22T12:20:50.957Z,27.10
2019-04-22T12:21:50.949Z,27.16
2019-04-22T12:22:51.290Z,26.47
2019-04-22T12:23:50.904Z,26.42
2019-04-22T12:24:50.348Z,26.09
2019-04-22T12:25:56.109Z,26.06
2019-04-22T12:26:50.729Z,25.61
2019-04-22T12:27:50.792Z,25.61
2019-04-22T12:28:50.990Z,25.25
2019-04-22T12:29:51.089Z,25.90
2019-04-22T12:30:51.156Z,25.64
2019-04-22T12:31:49.659Z,25.93
2019-04-22T12:32:50.505Z,25.86
2019-04-22T12:33:49.715Z,25.31
2019-04-22T12:34:49.637Z,25.64
2019-04-22T12:35:50.531Z,25.27
2019-04-22T12:36:51.091Z,25.17
2019-04-22T12:37:54.055Z,26.04
2019-04-22T12:38:51.458Z,26.50
2019-04-22T12:39:52.987Z,25.83
2019-04-22T12:40:56.619Z,25.61
2019-04-22T12:41:51.970Z,25.64
2019-04-22T12:42:49.560Z,25.28
2019-04-22T12:43:49.565Z,25.46
2019-04-22T12:44:51.052Z,25.71
2019-04-22T12:45:50.092Z,26.05
2019-04-22T12:46:50.263Z,26.92
2019-04-22T12:47:50.445Z,27.04
2019-04-22T12:48:49.930Z,26.76
2019-04-22T12:49:56.168Z,26.28
2019-04-22T12:50:53.874Z,26.52
2019-04-22T12:51:49.602Z,26.84
2019-04-22T12:52:55.559Z,25.80
2019-04-22T12:53:50.929Z,25.62
2019-04-22T12:54:50.781Z,25.80
2019-04-22T12:55:50.287Z,25.77
2019-04-22T12:56:49.423Z,25.86
2019-04-22T12:57:53.367Z,26.05
2019-04-22T12:58:51.699Z,25.89
2019-04-22T12:59:49.827Z,26.20
2019-04-22T13:00:51.378Z,26.80
2019-04-22T13:01:50.989Z,26.80
2019-04-22T13:02:49.369Z,26.67
2019-04-22T13:03:50.140Z,26.31
2019-04-22T13:04:49.969Z,26.74
2019-04-22T13:05:49.577Z,26.61
2019-04-22T13:06:49.940Z,26.24
2019-04-22T13:07:49.639Z,26.50
2019-04-22T13:08:49.851Z,26.68
2019-04-22T13:09:49.614Z,27.11
2019-04-22T13:10:55.205Z,26.96
2019-04-22T13:11:51.010Z,26.65
2019-04-22T13:12:49.265Z,27.14
2019-04-22T13:13:49.438Z,27.24
2019-04-22T13:14:50.645Z,27.48
2019-04-22T13:15:50.905Z,27.14
2019-04-22T13:16:49.310Z,26.46
2019-04-22T13:18:01.077Z,25.86
2019-04-22T13:18:57.599Z,26.28
2019-04-22T13:19:50.189Z,25.77
2019-04-22T13:20:50.315Z,25.97
2019-04-22T13:21:49.207Z,26.15
2019-04-22T13:22:50.503Z,26.15
2019-04-22T13:23:49.163Z,26.55
2019-04-22T13:24:49.934Z,26.52
2019-04-22T13:25:49.221Z,26.81
2019-04-22T13:26:50.567Z,26.52
2019-04-22T13:27:49.225Z,26.76
2019-04-22T13:28:49.311Z,26.54
2019-04-22T13:29:49.119Z,26.37
2019-04-22T13:30:50.488Z,26.96
2019-04-22T13:31:49.112Z,27.51
2019-04-22T13:32:49.187Z,26.89
2019-04-22T13:33:52.764Z,27.35
2019-04-22T13:34:53.933Z,27.11
2019-04-22T13:35:50.047Z,26.92
2019-04-22T13:36:50.342Z,27.16
2019-04-22T13:37:49.023Z,27.43
2019-04-22T13:38:49.253Z,27.20
2019-04-22T13:39:49.296Z,27.43
2019-04-22T13:41:00.654Z,27.76
2019-04-22T13:41:54.563Z,27.19
2019-04-22T13:42:51.191Z,26.72
2019-04-22T13:43:49.279Z,26.29
2019-04-22T13:44:49.697Z,26.43
2019-04-22T13:45:49.847Z,26.28
2019-04-22T13:47:08.242Z,25.97
2019-04-22T13:48:09.915Z,25.99
2019-04-22T13:49:21.276Z,26.77
2019-04-22T13:51:21.797Z,26.87
2019-04-22T13:52:20.709Z,26.72
2019-04-22T13:53:30.390Z,26.79
2019-04-22T13:55:16.403Z,26.50
2019-04-22T13:56:24.823Z,26.92
2019-04-22T13:57:09.054Z,27.51
2019-04-22T13:58:02.576Z,27.43
2019-04-22T13:59:01.832Z,26.80
2019-04-22T13:59:54.686Z,26.06
2019-04-22T14:00:49.795Z,25.28
2019-04-22T14:01:50.588Z,25.83
2019-04-22T14:02:48.813Z,25.86
2019-04-22T14:03:48.993Z,26.27
2019-04-22T14:04:48.773Z,26.28
2019-04-22T14:05:48.874Z,26.25
2019-04-22T14:06:49.098Z,26.87
2019-04-22T14:07:52.061Z,26.24
2019-04-22T14:08:49.435Z,25.79
2019-04-22T14:09:48.726Z,25.54
2019-04-22T14:10:50.190Z,25.38
2019-04-22T14:11:52.857Z,25.99
2019-04-22T14:12:50.859Z,25.87
2019-04-22T14:13:50.075Z,26.21
2019-04-22T14:14:50.446Z,26.43
2019-04-22T14:15:48.763Z,26.37
2019-04-22T14:16:49.105Z,25.59
2019-04-22T14:17:49.200Z,25.47
2019-04-22T14:18:49.777Z,26.29